createdAt,value
2022-12-18T00:02:12.572Z,100560.22
2022-12-18T00:04:39.399Z,100561.06
2022-12-18T00:07:06.246Z,100563.72
2022-12-18T00:09:40.220Z,100563.50
2022-12-18T00:14:43.258Z,100541.00
2022-12-18T00:17:10.124Z,100575.34
2022-12-18T00:19:37.009Z,100577.97
2022-12-18T00:22:03.901Z,100588.44
2022-12-18T00:24:30.762Z,100589.44
2022-12-18T00:26:57.585Z,100587.59
2022-12-18T00:29:24.447Z,100587.97
2022-12-18T00:31:51.359Z,100589.56
2022-12-18T00:34:18.217Z,100587.16
2022-12-18T00:36:45.074Z,100587.34
2022-12-18T00:39:13.127Z,100580.50
2022-12-18T00:41:58.339Z,100595.72
2022-12-18T00:44:26.005Z,100604.53
2022-12-18T00:46:52.938Z,100605.34
2022-12-18T00:49:20.349Z,100609.22
2022-12-18T00:51:47.348Z,100613.72
2022-12-18T00:54:14.449Z,100614.97
2022-12-18T00:56:49.728Z,100619.31
2022-12-18T00:59:18.319Z,100587.28
2022-12-18T01:01:45.797Z,100616.31
2022-12-18T01:04:12.857Z,100625.13
2022-12-18T01:06:39.787Z,100602.28
2022-12-18T01:09:07.271Z,100623.94
2022-12-18T01:11:36.998Z,100632.91
2022-12-18T01:14:04.952Z,100601.56
2022-12-18T01:16:32.132Z,100632.47
2022-12-18T01:18:59.021Z,100633.66
2022-12-18T01:21:27.767Z,100643.09
2022-12-18T01:23:55.587Z,100644.59
2022-12-18T01:26:24.055Z,100634.75
2022-12-18T01:28:51.207Z,100640.72
2022-12-18T01:31:18.033Z,100646.06
2022-12-18T01:33:45.206Z,100652.19
2022-12-18T01:36:25.688Z,100645.03
2022-12-18T01:38:52.661Z,100652.19
2022-12-18T01:41:21.196Z,100652.19
2022-12-18T01:43:56.156Z,100658.72
2022-12-18T01:46:26.667Z,100659.75
2022-12-18T01:48:58.830Z,100666.91
2022-12-18T01:51:27.690Z,100657.81
2022-12-18T01:53:54.506Z,100664.63
2022-12-18T01:56:21.981Z,100674.53
2022-12-18T01:58:58.501Z,100645.63
2022-12-18T02:01:26.014Z,100676.00
2022-12-18T02:03:53.121Z,100650.38
2022-12-18T02:06:35.560Z,100681.78
2022-12-18T02:09:21.038Z,100679.66
2022-12-18T02:12:04.809Z,100678.66
2022-12-18T02:15:00.394Z,100686.00
2022-12-18T02:17:42.639Z,100684.53
2022-12-18T02:20:44.817Z,100686.53
2022-12-18T02:23:24.899Z,100693.53
2022-12-18T02:26:03.575Z,100699.03
2022-12-18T02:28:33.239Z,100693.91
2022-12-18T02:31:04.424Z,100634.41
2022-12-18T02:33:32.565Z,100672.97
2022-12-18T02:35:59.426Z,100706.19
2022-12-18T02:38:27.158Z,100674.47
2022-12-18T02:40:55.513Z,100701.41
2022-12-18T02:43:23.010Z,100701.91
2022-12-18T02:45:56.026Z,100699.78
2022-12-18T02:48:25.510Z,100706.19
2022-12-18T02:51:10.029Z,100691.69
2022-12-18T02:53:59.846Z,100719.06
2022-12-18T02:56:33.599Z,100714.72
2022-12-18T02:59:08.473Z,100709.41
2022-12-18T03:01:48.194Z,100687.19
2022-12-18T03:04:22.576Z,100719.44
2022-12-18T03:06:55.651Z,100711.91
2022-12-18T03:09:25.370Z,100730.44
2022-12-18T03:12:14.382Z,100681.56
2022-12-18T03:14:41.327Z,100734.84
2022-12-18T03:17:14.621Z,100738.25
2022-12-18T03:19:41.432Z,100702.50
2022-12-18T03:22:08.330Z,100737.88
2022-12-18T03:24:43.960Z,100687.25
2022-12-18T03:27:12.878Z,100741.84
2022-12-18T03:29:48.754Z,100742.38
2022-12-18T03:32:24.772Z,100741.44
2022-12-18T03:34:51.899Z,100747.53
2022-12-18T03:37:21.404Z,100745.22
2022-12-18T03:39:48.298Z,100750.19
2022-12-18T03:42:28.163Z,100754.50
2022-12-18T03:45:10.018Z,100734.19
2022-12-18T03:47:48.099Z,100766.63
2022-12-18T03:50:47.542Z,100772.97
2022-12-18T03:53:23.405Z,100772.09
2022-12-18T03:55:50.680Z,100776.63
2022-12-18T03:58:19.435Z,100776.81
2022-12-18T04:00:55.706Z,100781.47
2022-12-18T04:03:26.164Z,100779.63
2022-12-18T04:05:53.908Z,100777.34
2022-12-18T04:08:22.371Z,100775.03
2022-12-18T04:10:57.896Z,100773.94
2022-12-18T04:13:34.628Z,100781.53
2022-12-18T04:16:03.188Z,100772.28
2022-12-18T04:18:30.210Z,100777.25
2022-12-18T04:20:57.144Z,100774.56
2022-12-18T04:23:24.072Z,100773.75
2022-12-18T04:25:51.027Z,100779.09
2022-12-18T04:28:27.902Z,100785.88
2022-12-18T04:30:54.983Z,100794.84
2022-12-18T04:33:22.591Z,100778.84
2022-12-18T04:35:49.441Z,100801.13
2022-12-18T04:38:16.589Z,100805.44
2022-12-18T04:40:44.172Z,100813.44
2022-12-18T04:43:19.851Z,100812.59
2022-12-18T04:45:46.811Z,100797.94
2022-12-18T04:48:13.629Z,100814.44
2022-12-18T04:50:40.471Z,100817.09
2022-12-18T04:53:07.737Z,100822.59
2022-12-18T04:55:34.600Z,100833.06
2022-12-18T04:58:01.449Z,100839.03
2022-12-18T05:00:28.801Z,100837.03
2022-12-18T05:02:56.093Z,100842.34
2022-12-18T05:05:23.021Z,100844.19
2022-12-18T05:07:49.838Z,100845.19
2022-12-18T05:10:16.700Z,100851.50
2022-12-18T05:13:02.173Z,100833.59
2022-12-18T05:15:32.534Z,100843.88
2022-12-18T05:17:59.566Z,100837.28
2022-12-18T05:20:26.819Z,100847.09
2022-12-18T05:22:54.564Z,100828.59
2022-12-18T05:25:21.558Z,100844.25
2022-12-18T05:27:48.469Z,100847.72
2022-12-18T05:30:15.641Z,100842.78
2022-12-18T05:32:42.592Z,100851.78
2022-12-18T05:35:10.283Z,100847.16
2022-12-18T05:37:42.723Z,100855.25
2022-12-18T05:40:10.945Z,100848.09
2022-12-18T05:42:37.782Z,100821.97
2022-12-18T05:45:05.329Z,100857.09
2022-12-18T05:47:32.190Z,100858.94
2022-12-18T05:49:59.004Z,100862.78
2022-12-18T05:52:25.968Z,100858.44
2022-12-18T05:54:52.918Z,100858.44
2022-12-18T05:57:19.873Z,100862.94
2022-12-18T05:59:46.692Z,100858.63
2022-12-18T06:02:13.597Z,100868.56
2022-12-18T06:04:40.553Z,100870.41
2022-12-18T06:07:07.379Z,100875.72
2022-12-18T06:09:34.233Z,100850.91
2022-12-18T06:12:01.135Z,100839.28
2022-12-18T06:14:28.069Z,100874.25
2022-12-18T06:16:54.949Z,100881.56
2022-12-18T06:19:21.812Z,100880.75
2022-12-18T06:21:48.686Z,100875.63
2022-12-18T06:24:15.723Z,100882.06
2022-12-18T06:26:42.569Z,100890.06
2022-12-18T06:29:09.379Z,100890.88
2022-12-18T06:31:36.399Z,100903.16
2022-12-18T06:34:04.346Z,100899.50
2022-12-18T06:36:31.745Z,100897.84
2022-12-18T06:38:58.761Z,100904.81
2022-12-18T06:41:25.706Z,100907.47
2022-12-18T06:43:56.818Z,100914.63
2022-12-18T06:46:26.572Z,100911.50
2022-12-18T06:48:53.777Z,100910.22
2022-12-18T06:51:21.652Z,100914.00
2022-12-18T06:53:48.611Z,100913.34
2022-12-18T06:56:15.489Z,100921.69
2022-12-18T06:58:42.387Z,100929.00
2022-12-18T07:01:11.156Z,100920.72
2022-12-18T07:03:43.580Z,100937.00
2022-12-18T07:06:18.482Z,100932.50
2022-12-18T07:08:45.941Z,100934.22
2022-12-18T07:11:13.182Z,100938.84
2022-12-18T07:13:40.374Z,100931.88
2022-12-18T07:16:20.925Z,100950.50
2022-12-18T07:18:49.425Z,100959.94
2022-12-18T07:21:17.730Z,100963.25
2022-12-18T07:23:45.738Z,100964.09
2022-12-18T07:26:13.347Z,100971.09
2022-12-18T07:28:40.912Z,100969.25
2022-12-18T07:31:11.878Z,100966.13
2022-12-18T07:33:39.380Z,100957.03
2022-12-18T07:36:07.672Z,100984.56
2022-12-18T07:38:34.916Z,100990.69
2022-12-18T07:41:02.840Z,100992.38
2022-12-18T07:43:29.633Z,100988.88
2022-12-18T07:45:56.503Z,100974.97
2022-12-18T07:48:23.385Z,100994.72
2022-12-18T07:50:50.228Z,100983.88
2022-12-18T07:53:17.026Z,100983.72
2022-12-18T07:56:17.851Z,100962.69
2022-12-18T07:58:30.941Z,100998.06
2022-12-18T08:01:05.252Z,100990.69
2022-12-18T08:03:33.212Z,100992.88
2022-12-18T08:06:04.084Z,100967.84
2022-12-18T08:08:31.244Z,100994.84
2022-12-18T08:10:58.602Z,100995.88
2022-12-18T08:13:25.684Z,100988.53
2022-12-18T08:16:06.846Z,101001.66
2022-12-18T08:18:38.086Z,101006.16
2022-12-18T08:21:19.340Z,100998.34
2022-12-18T08:23:48.726Z,100979.81
2022-12-18T08:26:16.139Z,101002.69
2022-12-18T08:28:43.038Z,100977.31
2022-12-18T08:31:09.892Z,101013.31
2022-12-18T08:33:37.338Z,101019.47
2022-12-18T08:36:05.173Z,101023.78
2022-12-18T08:38:33.258Z,101019.78
2022-12-18T08:41:20.781Z,101017.59
2022-12-18T08:44:06.309Z,101015.44
2022-12-18T08:46:42.611Z,101025.59
2022-12-18T08:49:09.733Z,100997.53
2022-12-18T08:51:36.982Z,101021.44
2022-12-18T08:54:04.137Z,101034.38
2022-12-18T08:56:34.036Z,101031.72
2022-12-18T08:59:00.845Z,101033.38
2022-12-18T09:01:28.997Z,101036.03
2022-12-18T09:03:55.956Z,101033.22
2022-12-18T09:06:22.986Z,101033.03
2022-12-18T09:08:50.026Z,101037.38
2022-12-18T09:11:24.640Z,101039.69
2022-12-18T09:13:51.698Z,101042.50
2022-12-18T09:16:18.631Z,101042.50
2022-12-18T09:18:45.542Z,101049.31
2022-12-18T09:21:14.092Z,101039.69
2022-12-18T09:23:41.106Z,101044.00
2022-12-18T09:26:08.114Z,101039.31
2022-12-18T09:28:35.049Z,101048.97
2022-12-18T09:31:05.562Z,101050.13
2022-12-18T09:33:32.395Z,101053.81
2022-12-18T09:36:02.209Z,101044.19
2022-12-18T09:38:29.077Z,101040.97
2022-12-18T09:41:01.527Z,101012.63
2022-12-18T09:43:36.961Z,101005.78
2022-12-18T09:46:06.595Z,101027.31
2022-12-18T09:48:39.684Z,100977.94
2022-12-18T09:51:56.173Z,101027.78
2022-12-18T09:54:26.037Z,101032.47
2022-12-18T09:56:53.579Z,101035.97
2022-12-18T09:59:37.024Z,101034.13
2022-12-18T10:02:18.488Z,101037.59
2022-12-18T10:04:46.760Z,100999.94
2022-12-18T10:07:28.807Z,101013.22
2022-12-18T10:10:19.440Z,101027.63
2022-12-18T10:12:52.049Z,101023.13
2022-12-18T10:15:40.052Z,101002.56
2022-12-18T10:18:20.288Z,101031.75
2022-12-18T10:20:57.800Z,101027.78
2022-12-18T10:23:42.461Z,100996.94
2022-12-18T10:26:13.712Z,101026.78
2022-12-18T10:28:42.490Z,101015.13
2022-12-18T10:31:20.161Z,101010.63
2022-12-18T10:33:47.048Z,100999.97
2022-12-18T10:36:13.892Z,100999.81
2022-12-18T10:38:41.066Z,101003.47
2022-12-18T10:41:27.638Z,101004.47
2022-12-18T10:44:18.764Z,101002.16
2022-12-18T10:46:46.950Z,100999.03
2022-12-18T10:49:41.583Z,100997.84
2022-12-18T10:52:18.760Z,101005.19
2022-12-18T10:55:02.832Z,100999.34
2022-12-18T10:57:39.645Z,101010.63
2022-12-18T11:00:25.607Z,101004.47
2022-12-18T11:02:52.995Z,101006.31
2022-12-18T11:05:37.914Z,100995.81
2022-12-18T11:08:05.172Z,100987.66
2022-12-18T11:10:33.688Z,100984.00
2022-12-18T11:13:23.121Z,100939.97
2022-12-18T11:15:50.115Z,100981.53
2022-12-18T11:18:28.548Z,100991.47
2022-12-18T11:21:06.545Z,100985.13
2022-12-18T11:23:33.393Z,100955.97
2022-12-18T11:26:01.341Z,100995.25
2022-12-18T11:28:42.048Z,100997.56
2022-12-18T11:31:11.001Z,100962.56
2022-12-18T11:33:38.802Z,100998.38
2022-12-18T11:36:05.885Z,100999.22
2022-12-18T11:38:40.292Z,101003.53
2022-12-18T11:41:19.043Z,101008.50
2022-12-18T11:43:57.030Z,101011.81
2022-12-18T11:46:37.768Z,101013.66
2022-12-18T11:49:13.467Z,100996.03
2022-12-18T11:51:53.148Z,101004.47
2022-12-18T11:54:19.950Z,101008.13
2022-12-18T11:56:52.471Z,101013.81
2022-12-18T11:59:43.561Z,101011.34
2022-12-18T12:02:39.733Z,101013.19
2022-12-18T12:05:12.699Z,101015.66
2022-12-18T12:07:54.431Z,101026.16
2022-12-18T12:10:59.571Z,101032.41
2022-12-18T12:13:50.418Z,101034.56
2022-12-18T12:16:19.008Z,101026.56
2022-12-18T12:18:53.530Z,101026.25
2022-12-18T12:21:40.676Z,101038.72
2022-12-18T12:24:18.909Z,101038.72
2022-12-18T12:27:23.319Z,101035.69
2022-12-18T12:30:08.530Z,101030.00
2022-12-18T12:32:57.359Z,101047.63
2022-12-18T12:35:33.202Z,101048.91
2022-12-18T12:38:11.006Z,101040.94
2022-12-18T12:40:56.920Z,101018.56
2022-12-18T12:43:36.795Z,101041.59
2022-12-18T12:46:10.642Z,101039.75
2022-12-18T12:48:50.739Z,101032.56
2022-12-18T12:51:18.893Z,101032.41
2022-12-18T12:53:46.209Z,101033.06
2022-12-18T12:56:14.874Z,101021.75
2022-12-18T12:58:51.655Z,101004.06
2022-12-18T13:01:37.049Z,101031.22
2022-12-18T13:04:34.372Z,101037.22
2022-12-18T13:07:15.621Z,101039.69
2022-12-18T13:10:19.013Z,101041.53
2022-12-18T13:13:22.319Z,101040.50
2022-12-18T13:16:07.527Z,101030.88
2022-12-18T13:18:34.520Z,101040.88
2022-12-18T13:21:03.162Z,101034.53
2022-12-18T13:23:37.668Z,100997.34
2022-12-18T13:26:07.505Z,101033.34
2022-12-18T13:28:34.454Z,101024.34
2022-12-18T13:31:02.130Z,101007.50
2022-12-18T13:33:34.896Z,101031.31
2022-12-18T13:36:23.678Z,101030.13
2022-12-18T13:39:10.925Z,101032.81
2022-12-18T13:41:38.112Z,101028.50
2022-12-18T13:44:40.954Z,101032.97
2022-12-18T13:47:35.679Z,101041.63
2022-12-18T13:50:26.991Z,101035.47
2022-12-18T13:52:56.691Z,101031.16
2022-12-18T13:55:23.628Z,101032.16
2022-12-18T13:57:50.497Z,101024.97
2022-12-18T14:00:29.635Z,101040.81
2022-12-18T14:02:57.532Z,101048.16
2022-12-18T14:05:31.133Z,101048.97
2022-12-18T14:08:06.363Z,101051.00
2022-12-18T14:10:47.899Z,101022.00
2022-12-18T14:13:26.140Z,101051.38
2022-12-18T14:15:53.154Z,101048.34
2022-12-18T14:18:31.846Z,101048.34
2022-12-18T14:21:00.049Z,101046.66
2022-12-18T14:23:32.796Z,101042.34
2022-12-18T14:26:05.384Z,101049.69
2022-12-18T14:28:33.061Z,101049.06
2022-12-18T14:30:59.979Z,101050.03
2022-12-18T14:33:27.793Z,101057.22
2022-12-18T14:36:04.196Z,101057.41
2022-12-18T14:38:34.798Z,101063.09
2022-12-18T14:41:05.844Z,101073.09
2022-12-18T14:43:36.461Z,101068.78
2022-12-18T14:46:04.525Z,101066.66
2022-12-18T14:48:39.756Z,101011.63
2022-12-18T14:51:06.563Z,101071.03
2022-12-18T14:53:37.462Z,101072.84
2022-12-18T14:56:11.296Z,101076.88
2022-12-18T14:58:38.148Z,101072.72
2022-12-18T15:01:05.107Z,101065.09
2022-12-18T15:03:32.009Z,101073.91
2022-12-18T15:06:15.656Z,101069.13
2022-12-18T15:08:43.613Z,101077.47
2022-12-18T15:11:30.203Z,101093.31
2022-12-18T15:13:59.068Z,101070.25
2022-12-18T15:16:25.984Z,101100.66
2022-12-18T15:18:52.850Z,101072.63
2022-12-18T15:21:20.415Z,101097.56
2022-12-18T15:23:51.682Z,101098.06
2022-12-18T15:26:20.251Z,101110.75
2022-12-18T15:28:53.821Z,101115.56
2022-12-18T15:31:25.612Z,101112.63
2022-12-18T15:33:53.384Z,101117.44
2022-12-18T15:36:26.392Z,101089.06
2022-12-18T15:38:56.101Z,101084.75
2022-12-18T15:41:28.107Z,101120.31
2022-12-18T15:43:54.917Z,101110.00
2022-12-18T15:46:23.293Z,101119.34
2022-12-18T15:48:52.809Z,101091.28
2022-12-18T15:51:24.632Z,101126.31
2022-12-18T15:53:53.420Z,101121.34
2022-12-18T15:56:38.803Z,101095.13
2022-12-18T15:59:13.908Z,101125.69
2022-12-18T16:01:42.786Z,101133.53
2022-12-18T16:04:21.550Z,101097.66
2022-12-18T16:07:13.696Z,101139.03
2022-12-18T16:09:36.927Z,101137.53
2022-12-18T16:12:04.029Z,101140.72
2022-12-18T16:14:30.992Z,101133.72
2022-12-18T16:17:04.775Z,101126.59
2022-12-18T16:19:31.609Z,101123.59
2022-12-18T16:21:59.064Z,101094.53
2022-12-18T16:24:27.480Z,101094.84
2022-12-18T16:26:54.824Z,101122.94
2022-12-18T16:29:25.670Z,101096.88
2022-12-18T16:31:53.119Z,101098.38
2022-12-18T16:34:22.960Z,101121.78
2022-12-18T16:36:52.496Z,101116.47
2022-12-18T16:39:19.300Z,101112.47
2022-12-18T16:41:46.095Z,101104.84
2022-12-18T16:44:13.186Z,101064.13
2022-12-18T16:46:40.320Z,101093.19
2022-12-18T16:49:07.225Z,101095.34
2022-12-18T16:51:34.462Z,101066.97
2022-12-18T16:54:04.005Z,101091.03
2022-12-18T16:56:34.867Z,101097.53
2022-12-18T16:59:02.336Z,101083.06
2022-12-18T17:01:32.344Z,101091.88
2022-12-18T17:04:04.165Z,101091.69
2022-12-18T17:06:33.292Z,101090.34
2022-12-18T17:09:00.916Z,101099.19
2022-12-18T17:11:28.816Z,101090.88
2022-12-18T17:13:56.078Z,101081.56
2022-12-18T17:16:25.446Z,101073.91
2022-12-18T17:18:55.231Z,101075.25
2022-12-18T17:21:22.090Z,101057.16
2022-12-18T17:23:48.899Z,101067.25
2022-12-18T17:26:15.795Z,101073.06
2022-12-18T17:28:42.743Z,101072.56
2022-12-18T17:31:18.515Z,101067.59
2022-12-18T17:33:45.353Z,101057.59
2022-12-18T17:36:12.558Z,101066.38
2022-12-18T17:38:39.586Z,101072.16
2022-12-18T17:41:08.172Z,101070.00
2022-12-18T17:43:45.775Z,101067.69
2022-12-18T17:46:15.692Z,101070.34
2022-12-18T17:48:42.585Z,101085.91
2022-12-18T17:51:11.020Z,101090.53
2022-12-18T17:53:41.811Z,101071.53
2022-12-18T17:56:11.725Z,101024.66
2022-12-18T17:58:38.684Z,101089.00
2022-12-18T18:01:06.014Z,101086.44
2022-12-18T18:03:33.428Z,101096.75
2022-12-18T18:06:01.557Z,101090.06
2022-12-18T18:08:28.650Z,101068.09
2022-12-18T18:11:15.928Z,101106.78
2022-12-18T18:14:01.467Z,101101.31
2022-12-18T18:16:32.689Z,101102.75
2022-12-18T18:19:02.162Z,101096.44
2022-12-18T18:21:29.158Z,101094.91
2022-12-18T18:23:58.867Z,101096.06
2022-12-18T18:26:29.186Z,101097.81
2022-12-18T18:28:57.814Z,101045.75
2022-12-18T18:31:25.079Z,101118.22
2022-12-18T18:33:52.157Z,101122.00
2022-12-18T18:36:18.974Z,101124.13
2022-12-18T18:38:48.541Z,101131.72
2022-12-18T18:41:15.670Z,101112.50
2022-12-18T18:43:42.898Z,101147.91
2022-12-18T18:46:12.380Z,101149.06
2022-12-18T18:48:40.227Z,101137.09
2022-12-18T18:51:11.799Z,101145.88
2022-12-18T18:53:44.851Z,101136.59
2022-12-18T18:59:00.472Z,101135.38
2022-12-18T19:01:27.486Z,101131.72
2022-12-18T19:03:54.458Z,101127.56
2022-12-18T19:06:26.561Z,101125.91
2022-12-18T19:08:54.241Z,101129.69
2022-12-18T19:11:40.283Z,101136.81
2022-12-18T19:14:08.059Z,101136.81
2022-12-18T19:16:35.064Z,101129.19
2022-12-18T19:19:02.736Z,101121.53
2022-12-18T19:21:31.411Z,101103.69
2022-12-18T19:24:00.758Z,101128.66
2022-12-18T19:26:28.532Z,101126.44
2022-12-18T19:29:03.939Z,101138.44
2022-12-18T19:31:35.523Z,101142.03
2022-12-18T19:34:03.859Z,101107.09
2022-12-18T19:36:30.783Z,101144.16
2022-12-18T19:38:58.855Z,101142.34
2022-12-18T19:41:25.940Z,101140.53
2022-12-18T19:43:56.125Z,101150.16
2022-12-18T19:46:23.707Z,101129.09
2022-12-18T19:48:50.730Z,101128.97
2022-12-18T19:51:19.925Z,101131.59
2022-12-18T19:53:46.890Z,101138.03
2022-12-18T19:56:15.368Z,101129.28
2022-12-18T19:58:42.599Z,101140.81
2022-12-18T20:01:09.714Z,101115.34
2022-12-18T20:03:38.561Z,101153.94
2022-12-18T20:06:10.034Z,101073.09
2022-12-18T20:08:37.179Z,101113.06
2022-12-18T20:11:04.021Z,101133.72
2022-12-18T20:13:31.186Z,101131.75
2022-12-18T20:15:58.277Z,101129.09
2022-12-18T20:18:25.643Z,101138.34
2022-12-18T20:20:52.688Z,101139.88
2022-12-18T20:23:22.844Z,101139.69
2022-12-18T20:25:49.878Z,101148.47
2022-12-18T20:28:16.761Z,101142.03
2022-12-18T20:30:43.592Z,101133.41
2022-12-18T20:33:10.429Z,101136.59
2022-12-18T20:35:37.418Z,101134.78
2022-12-18T20:38:04.964Z,101116.03
2022-12-18T20:40:33.013Z,101113.13
2022-12-18T20:43:00.149Z,101098.66
2022-12-18T20:45:28.526Z,101133.13
2022-12-18T20:47:57.225Z,101127.66
2022-12-18T20:50:24.070Z,101123.19
2022-12-18T20:52:50.864Z,101115.94
2022-12-18T20:55:19.480Z,101115.94
2022-12-18T20:57:46.404Z,101115.09
2022-12-18T21:00:13.764Z,101116.94
2022-12-18T21:02:45.845Z,101111.78
2022-12-18T21:05:12.804Z,101100.34
2022-12-18T21:07:39.617Z,101097.69
2022-12-18T21:10:06.864Z,101073.19
2022-12-18T21:12:40.344Z,101104.00
2022-12-18T21:15:11.172Z,101103.13
2022-12-18T21:17:41.705Z,101061.25
2022-12-18T21:20:13.303Z,101098.53
2022-12-18T21:22:44.616Z,101105.78
2022-12-18T21:25:11.464Z,101097.31
2022-12-18T21:27:38.262Z,101094.53
2022-12-18T21:30:05.819Z,101097.19
2022-12-18T21:32:33.692Z,101101.63
2022-12-18T21:35:00.960Z,101097.47
2022-12-18T21:37:27.848Z,101108.59
2022-12-18T21:39:54.692Z,101113.91
2022-12-18T21:42:40.456Z,101112.91
2022-12-18T21:45:07.799Z,101116.53
2022-12-18T21:47:34.617Z,101082.56
2022-12-18T21:50:01.477Z,101122.81
2022-12-18T21:52:32.052Z,101119.19
2022-12-18T21:55:07.825Z,101123.50
2022-12-18T21:57:36.173Z,101122.66
2022-12-18T22:00:04.426Z,101134.25
2022-12-18T22:02:39.114Z,101129.78
2022-12-18T22:05:06.426Z,101128.09
2022-12-18T22:07:33.845Z,101118.50
2022-12-18T22:10:00.917Z,101119.34
2022-12-18T22:12:35.671Z,101126.44
2022-12-18T22:15:07.139Z,101119.34
2022-12-18T22:17:33.986Z,101121.16
2022-12-18T22:20:01.291Z,101074.94
2022-12-18T22:22:28.474Z,101110.88
2022-12-18T22:24:55.300Z,101109.50
2022-12-18T22:27:22.167Z,101113.50
2022-12-18T22:30:04.279Z,101115.34
2022-12-18T22:32:35.551Z,101114.34
2022-12-18T22:35:08.367Z,101116.16
2022-12-18T22:37:36.772Z,101116.16
2022-12-18T22:40:05.529Z,101089.56
2022-12-18T22:42:32.965Z,101117.16
2022-12-18T22:45:00.462Z,101118.13
2022-12-18T22:47:30.131Z,101071.25
2022-12-18T22:49:58.074Z,101108.53
2022-12-18T22:52:25.369Z,101111.16
2022-12-18T22:54:53.316Z,101080.22
2022-12-18T22:57:21.774Z,101101.72
2022-12-18T22:59:49.720Z,101064.25
2022-12-18T23:02:18.050Z,101115.63
2022-12-18T23:04:45.238Z,101116.09
2022-12-18T23:07:12.627Z,101092.63
2022-12-18T23:09:39.628Z,101085.31
2022-12-18T23:12:06.777Z,101103.16
2022-12-18T23:14:33.609Z,101106.63
2022-12-18T23:17:00.447Z,101066.00
2022-12-18T23:19:27.304Z,101106.78
2022-12-18T23:21:54.537Z,101083.41
2022-12-18T23:24:23.485Z,101091.72
2022-12-18T23:26:50.342Z,101080.31
2022-12-18T23:29:17.154Z,101080.31
2022-12-18T23:31:44.100Z,101073.34
2022-12-18T23:34:12.501Z,101073.34
2022-12-18T23:36:46.392Z,101066.38
2022-12-18T23:39:18.805Z,101071.00
2022-12-18T23:41:58.336Z,101070.00
2022-12-18T23:44:25.378Z,101061.25
2022-12-18T23:46:52.833Z,101030.47
2022-12-18T23:49:19.775Z,101024.34
2022-12-18T23:51:46.690Z,101057.91
2022-12-18T23:54:13.516Z,101057.38
2022-12-18T23:56:40.327Z,101070.63
2022-12-18T23:59:07.189Z,101067.97
